createdAt,value
2019-03-11T04:50:51.441Z,33.70
2019-03-11T04:53:26.265Z,34.60
2019-03-11T04:56:03.715Z,34.60
2019-03-11T04:58:42.939Z,34.70
2019-03-11T05:01:19.066Z,34.70
2019-03-11T05:04:01.800Z,34.70
2019-03-11T05:06:33.285Z,34.80
2019-03-11T05:09:04.189Z,34.90
2019-03-11T05:11:38.352Z,35.00
2019-03-11T05:14:10.175Z,35.10
2019-03-11T05:23:35.704Z,35.10
2019-03-11T05:26:06.430Z,35.00
2019-03-11T05:28:41.952Z,35.00
2019-03-11T05:31:12.976Z,35.00
2019-03-11T05:33:44.117Z,34.90
2019-03-11T05:36:14.817Z,34.90
2019-03-11T05:38:45.860Z,34.90
2019-03-11T05:41:17.889Z,35.00
2019-03-11T05:43:51.821Z,35.00
2019-03-11T05:46:22.529Z,35.10
2019-03-11T05:48:53.680Z,35.10
2019-03-11T05:51:31.593Z,35.20
2019-03-11T05:53:57.327Z,35.20
2019-03-11T05:59:18.039Z,35.30
2019-03-11T06:01:49.761Z,35.40
2019-03-11T06:04:20.961Z,35.40
2019-03-11T06:06:51.730Z,35.50
2019-03-11T06:09:22.660Z,35.50
2019-03-11T06:11:53.450Z,35.60
2019-03-11T06:14:36.264Z,35.60
2019-03-11T06:17:15.470Z,35.60
2019-03-11T06:19:46.344Z,35.70
2019-03-11T06:22:19.957Z,35.70
2019-03-11T06:24:54.593Z,35.80
2019-03-11T06:27:26.843Z,35.80
2019-03-11T06:29:56.627Z,35.80
2019-03-11T06:32:27.474Z,35.80
2019-03-11T06:34:58.291Z,35.80
2019-03-11T06:37:29.716Z,35.90
2019-03-11T06:40:00.911Z,36.00
2019-03-11T06:42:32.177Z,36.10
2019-03-11T06:45:03.498Z,36.10
2019-03-11T06:47:34.360Z,36.20
2019-03-11T06:50:07.159Z,36.20
2019-03-11T06:52:38.197Z,36.10
2019-03-11T06:55:10.376Z,36.10
2019-03-11T06:57:41.672Z,36.10
2019-03-11T07:00:15.420Z,36.00
2019-03-11T07:02:54.443Z,36.10
2019-03-11T07:05:25.548Z,36.10
2019-03-11T07:07:56.172Z,36.10
2019-03-11T07:10:29.239Z,36.10
2019-03-11T07:13:00.425Z,36.10
2019-03-11T07:15:32.584Z,36.10
2019-03-11T07:18:06.142Z,36.20
2019-03-11T07:20:38.353Z,36.20
2019-03-11T07:23:09.408Z,36.30
2019-03-11T07:25:43.874Z,36.30
2019-03-11T07:28:15.320Z,36.30
2019-03-11T07:30:47.238Z,36.30
2019-03-11T07:33:20.435Z,36.30
2019-03-11T07:35:52.886Z,36.30
2019-03-11T07:38:23.753Z,36.30
2019-03-11T07:40:56.412Z,36.30
2019-03-11T07:43:28.426Z,36.30
2019-03-11T07:45:59.695Z,36.30
2019-03-11T07:48:30.815Z,36.40
2019-03-11T07:51:02.814Z,36.40
2019-03-11T07:53:33.617Z,36.40
2019-03-11T07:56:06.284Z,36.40
2019-03-11T07:58:36.976Z,36.30
2019-03-11T08:01:08.388Z,36.40
2019-03-11T08:03:39.654Z,36.40
2019-03-11T08:06:18.439Z,36.30
2019-03-11T08:08:44.161Z,36.40
2019-03-11T08:11:17.129Z,36.40
2019-03-11T08:13:52.709Z,36.30
2019-03-11T08:16:27.108Z,36.30
2019-03-11T08:18:58.240Z,36.30
2019-03-11T08:27:57.665Z,36.40
2019-03-11T08:30:29.260Z,36.40
2019-03-11T08:33:00.523Z,36.30
2019-03-11T08:35:31.297Z,36.30
2019-03-11T08:38:05.307Z,36.20
2019-03-11T08:40:36.862Z,36.20
2019-03-11T08:43:07.985Z,36.20
2019-03-11T08:45:38.940Z,36.10
2019-03-11T08:48:09.939Z,36.20
2019-03-11T08:50:49.012Z,36.20
2019-03-11T08:53:21.660Z,36.20
2019-03-11T08:55:55.975Z,36.20
2019-03-11T08:58:28.170Z,36.20
2019-03-11T09:01:03.075Z,36.20
2019-03-11T09:03:34.336Z,36.20
2019-03-11T09:06:05.365Z,36.30
2019-03-11T09:08:36.354Z,36.30
2019-03-11T09:11:07.002Z,36.30
2019-03-11T09:13:37.719Z,36.30
2019-03-11T09:16:10.018Z,36.30
2019-03-11T09:18:41.171Z,36.30
2019-03-11T09:21:14.163Z,36.30
2019-03-11T09:23:44.269Z,36.20
2019-03-11T09:26:14.998Z,36.20
2019-03-11T09:28:46.045Z,36.20
2019-03-11T09:31:17.270Z,36.20
2019-03-11T09:33:48.222Z,36.20
2019-03-11T09:36:20.275Z,36.20
2019-03-11T09:45:30.588Z,36.10
2019-03-11T09:48:03.199Z,36.00
2019-03-11T09:50:35.824Z,36.10
2019-03-11T09:53:09.158Z,36.10
2019-03-11T09:55:43.197Z,36.00
2019-03-11T10:11:36.503Z,35.70
2019-03-11T10:14:07.774Z,35.70
2019-03-11T10:16:38.683Z,35.60
2019-03-11T10:19:09.624Z,35.60
2019-03-11T10:21:40.690Z,35.50
2019-03-11T10:24:14.650Z,35.50
2019-03-11T10:26:52.520Z,35.40
2019-03-11T10:29:28.083Z,35.30
2019-03-11T10:32:03.112Z,35.30
2019-03-11T10:34:33.953Z,35.30
2019-03-11T10:37:04.747Z,35.20
2019-03-11T10:39:39.951Z,35.20
2019-03-11T10:42:10.991Z,35.10
2019-03-11T10:44:49.494Z,35.10
2019-03-11T10:47:19.809Z,35.10
2019-03-11T10:49:53.575Z,35.00
2019-03-11T10:52:27.549Z,35.00
2019-03-11T10:55:00.484Z,34.90
2019-03-11T10:57:40.393Z,34.90
2019-03-11T11:00:13.269Z,34.80
2019-03-11T11:02:47.100Z,34.80
2019-03-11T11:05:32.398Z,34.70
2019-03-11T11:08:00.643Z,34.70
2019-03-11T11:10:39.689Z,34.60
2019-03-11T11:13:10.543Z,34.50
2019-03-11T11:15:57.737Z,34.50
2019-03-11T11:18:15.960Z,34.40
2019-03-11T11:20:46.944Z,34.40
2019-03-11T11:23:17.751Z,34.40
2019-03-11T11:25:48.717Z,34.30
2019-03-11T11:28:20.829Z,34.20
2019-03-11T11:30:51.761Z,34.20
